Time,TemperatureF,DewpointF,PressureIn,WindDirection,WindDirectionDegrees,WindSpeedMPH,WindSpeedGustMPH,Humidity,HourlyPrecipIn,Conditions,Clouds,dailyrainin,SoftwareType,DateUTC
2013-09-06 00:01:00,60.1,48.3,29.99,NE,45,0.0,0.0,65,0.00,,,0.00,VWS V14.01,2013-09-06 04:01:00,
2013-09-06 00:11:00,59.9,48.5,29.99,NE,45,0.0,1.0,66,0.00,,,0.00,VWS V14.01,2013-09-06 04:11:00,
2013-09-06 00:21:00,59.7,49.1,29.99,NE,45,0.0,0.0,68,0.00,,,0.00,VWS V14.01,2013-09-06 04:21:00,
2013-09-06 00:31:00,59.7,48.7,29.99,NE,45,0.0,0.0,67,0.00,,,0.00,VWS V14.01,2013-09-06 04:31:00,
2013-09-06 00:41:00,59.5,48.9,29.99,ENE,57,0.0,2.0,68,0.00,,,0.00,VWS V14.01,2013-09-06 04:41:00,
2013-09-06 00:51:00,59.5,48.5,30.00,ENE,60,0.0,1.0,67,0.00,,,0.00,VWS V14.01,2013-09-06 04:51:00,
2013-09-06 01:01:00,59.5,48.5,30.00,ENE,60,0.0,0.0,67,0.00,,,0.00,VWS V14.01,2013-09-06 05:01:00,
2013-09-06 01:11:00,59.3,49.1,30.00,ENE,60,0.0,0.0,69,0.00,,,0.00,VWS V14.01,2013-09-06 05:11:00,
2013-09-06 01:21:00,59.1,49.0,30.00,ENE,60,0.0,0.0,69,0.00,,,0.00,VWS V14.01,2013-09-06 05:21:00,
2013-09-06 01:31:00,58.9,48.0,30.00,ENE,60,0.0,0.0,67,0.00,,,0.00,VWS V14.01,2013-09-06 05:31:00,
2013-09-06 01:41:00,58.5,49.5,30.00,ENE,60,0.0,0.0,72,0.00,,,0.00,VWS V14.01,2013-09-06 05:41:00,
2013-09-06 01:51:00,58.1,48.8,30.01,ENE,60,0.0,0.0,71,0.00,,,0.00,VWS V14.01,2013-09-06 05:51:00,
2013-09-06 02:01:00,57.6,48.7,30.01,ENE,60,0.0,0.0,72,0.00,,,0.00,VWS V14.01,2013-09-06 06:01:00,
2013-09-06 02:11:00,57.0,48.8,30.01,ENE,60,0.0,0.0,74,0.00,,,0.00,VWS V14.01,2013-09-06 06:11:00,
2013-09-06 02:21:00,56.4,48.6,30.01,ENE,60,0.0,0.0,75,0.00,,,0.00,VWS V14.01,2013-09-06 06:21:00,
2013-09-06 02:31:00,56.1,48.7,30.01,ENE,60,0.0,0.0,76,0.00,,,0.00,VWS V14.01,2013-09-06 06:31:00,
2013-09-06 02:41:00,55.8,48.7,30.01,ENE,60,0.0,0.0,77,0.00,,,0.00,VWS V14.01,2013-09-06 06:41:00,
2013-09-06 02:51:00,55.5,48.8,30.01,ENE,60,0.0,0.0,78,0.00,,,0.00,VWS V14.01,2013-09-06 06:51:00,
2013-09-06 03:01:00,55.2,48.8,30.01,ENE,60,0.0,0.0,79,0.00,,,0.00,VWS V14.01,2013-09-06 07:01:00,
2013-09-06 03:11:00,54.9,48.9,30.01,ENE,60,0.0,0.0,80,0.00,,,0.00,VWS V14.01,2013-09-06 07:11:00,
2013-09-06 03:21:00,54.7,48.7,30.01,ENE,60,0.0,0.0,80,0.00,,,0.00,VWS V14.01,2013-09-06 07:21:00,
2013-09-06 03:31:00,54.5,49.1,30.01,ENE,60,0.0,0.0,82,0.00,,,0.00,VWS V14.01,2013-09-06 07:31:00,
2013-09-06 03:41:00,54.4,49.0,30.01,ENE,60,0.0,0.0,82,0.00,,,0.00,VWS V14.01,2013-09-06 07:41:00,
2013-09-06 03:51:00,54.1,49.1,30.01,ENE,60,0.0,2.0,83,0.00,,,0.00,VWS V14.01,2013-09-06 07:51:00,
2013-09-06 04:01:00,53.8,49.4,30.02,ENE,60,0.0,1.0,85,0.00,,,0.00,VWS V14.01,2013-09-06 08:01:00,
2013-09-06 04:11:00,53.7,49.3,30.02,ENE,60,0.0,1.0,85,0.00,,,0.00,VWS V14.01,2013-09-06 08:11:00,
2013-09-06 04:21:00,53.7,49.9,30.02,ENE,60,0.0,1.0,87,0.00,,,0.00,VWS V14.01,2013-09-06 08:21:00,
2013-09-06 04:31:00,53.7,49.9,30.02,ENE,60,0.0,1.0,87,0.00,,,0.00,VWS V14.01,2013-09-06 08:31:00,
2013-09-06 04:41:00,53.6,49.5,30.02,ENE,60,0.0,2.0,86,0.00,,,0.00,VWS V14.01,2013-09-06 08:41:00,
2013-09-06 04:51:00,53.6,49.5,30.03,ENE,60,0.0,1.0,86,0.00,,,0.00,VWS V14.01,2013-09-06 08:51:00,
2013-09-06 05:01:00,53.7,49.6,30.03,ENE,60,0.0,1.0,86,0.00,,,0.00,VWS V14.01,2013-09-06 09:01:00,
2013-09-06 05:11:00,53.7,49.9,30.03,ENE,60,0.0,1.0,87,0.00,,,0.00,VWS V14.01,2013-09-06 09:11:00,
2013-09-06 05:21:00,53.7,49.3,30.04,ENE,60,0.0,1.0,85,0.00,,,0.00,VWS V14.01,2013-09-06 09:21:00,
2013-09-06 05:31:00,53.9,49.5,30.04,SE,137,0.0,3.0,85,0.00,,,0.00,VWS V14.01,2013-09-06 09:31:00,
2013-09-06 05:41:00,54.1,49.4,30.04,South,183,0.0,2.0,84,0.00,,,0.00,VWS V14.01,2013-09-06 09:41:00,
2013-09-06 05:51:00,54.1,49.1,30.04,South,183,0.0,1.0,83,0.00,,,0.00,VWS V14.01,2013-09-06 09:51:00,
2013-09-06 06:01:00,53.9,49.2,30.04,South,182,0.0,1.0,84,0.00,,,0.00,VWS V14.01,2013-09-06 10:01:00,
2013-09-06 06:11:00,53.7,48.3,30.04,South,183,0.0,0.0,82,0.00,,,0.00,VWS V14.01,2013-09-06 10:11:00,
2013-09-06 06:21:00,53.5,48.5,30.05,South,183,0.0,0.0,83,0.00,,,0.00,VWS V14.01,2013-09-06 10:21:00,
2013-09-06 06:31:00,53.2,48.5,30.05,South,183,0.0,1.0,84,0.00,,,0.00,VWS V14.01,2013-09-06 10:31:00,
2013-09-06 06:41:00,53.1,48.4,30.05,South,183,0.0,2.0,84,0.00,,,0.00,VWS V14.01,2013-09-06 10:41:00,
2013-09-06 06:51:00,53.1,48.4,30.06,South,183,0.0,1.0,84,0.00,,,0.00,VWS V14.01,2013-09-06 10:51:00,
2013-09-06 07:01:00,53.2,48.2,30.07,South,183,0.0,0.0,83,0.00,,,0.00,VWS V14.01,2013-09-06 11:01:00,
2013-09-06 07:11:00,53.3,48.3,30.07,South,183,0.0,0.0,83,0.00,,,0.00,VWS V14.01,2013-09-06 11:11:00,
2013-09-06 07:21:00,53.4,48.7,30.06,South,183,0.0,0.0,84,0.00,,,0.00,VWS V14.01,2013-09-06 11:21:00,
2013-09-06 07:31:00,53.6,49.2,30.07,South,183,0.0,0.0,85,0.00,,,0.00,VWS V14.01,2013-09-06 11:31:00,
2013-09-06 07:41:00,53.9,49.2,30.07,South,183,0.0,1.0,84,0.00,,,0.00,VWS V14.01,2013-09-06 11:41:00,
2013-09-06 07:51:00,54.4,50.6,30.07,South,183,0.0,1.0,87,0.00,,,0.00,VWS V14.01,2013-09-06 11:51:00,
2013-09-06 08:01:00,54.9,50.2,30.07,South,183,1.0,2.0,84,0.00,,,0.00,VWS V14.01,2013-09-06 12:01:00,
2013-09-06 08:11:00,55.7,50.6,30.07,SE,134,0.0,1.0,83,0.00,,,0.00,VWS V14.01,2013-09-06 12:11:00,
2013-09-06 08:21:00,56.5,51.1,30.08,South,189,0.0,2.0,82,0.00,,,0.00,VWS V14.01,2013-09-06 12:21:00,
2013-09-06 08:31:00,57.4,50.3,30.08,NW,304,0.0,2.0,77,0.00,,,0.00,VWS V14.01,2013-09-06 12:31:00,
2013-09-06 08:41:00,58.2,49.2,30.08,WSW,255,0.0,3.0,72,0.00,,,0.00,VWS V14.01,2013-09-06 12:41:00,
2013-09-06 08:51:00,58.7,49.0,30.09,NNW,336,1.0,3.0,70,0.00,,,0.00,VWS V14.01,2013-09-06 12:51:00,
2013-09-06 09:01:00,59.0,49.2,30.10,WSW,246,0.0,2.0,70,0.00,,,0.00,VWS V14.01,2013-09-06 13:01:00,
2013-09-06 09:11:00,59.4,48.0,30.10,NNE,24,1.0,3.0,66,0.00,,,0.00,VWS V14.01,2013-09-06 13:11:00,
2013-09-06 09:21:00,59.9,49.7,30.09,North,351,1.0,3.0,69,0.00,,,0.00,VWS V14.01,2013-09-06 13:21:00,
2013-09-06 09:31:00,60.4,49.0,30.10,ENE,64,1.0,3.0,66,0.00,,,0.00,VWS V14.01,2013-09-06 13:31:00,
2013-09-06 09:41:00,61.0,48.3,30.10,South,189,1.0,3.0,63,0.00,,,0.00,VWS V14.01,2013-09-06 13:41:00,
2013-09-06 09:51:00,61.4,48.7,30.10,WSW,242,1.0,3.0,63,0.00,,,0.00,VWS V14.01,2013-09-06 13:51:00,
2013-09-06 10:01:00,61.8,49.1,30.10,WSW,245,0.0,3.0,63,0.00,,,0.00,VWS V14.01,2013-09-06 14:01:00,
2013-09-06 10:11:00,62.2,47.7,30.10,NNE,32,2.0,4.0,59,0.00,,,0.00,VWS V14.01,2013-09-06 14:11:00,
2013-09-06 10:21:00,62.5,48.4,30.09,NNE,28,1.0,3.0,60,0.00,,,0.00,VWS V14.01,2013-09-06 14:21:00,
2013-09-06 10:31:00,62.9,49.3,30.09,WNW,302,1.0,4.0,61,0.00,,,0.00,VWS V14.01,2013-09-06 14:31:00,
2013-09-06 10:41:00,63.2,48.7,30.09,SSW,206,3.0,4.0,59,0.00,,,0.00,VWS V14.01,2013-09-06 14:41:00,
2013-09-06 10:51:00,63.7,46.8,30.09,NNE,22,0.0,4.0,54,0.00,,,0.00,VWS V14.01,2013-09-06 14:51:00,
2013-09-06 11:01:00,64.2,48.2,30.09,NW,323,1.0,4.0,56,0.00,,,0.00,VWS V14.01,2013-09-06 15:01:00,
2013-09-06 11:11:00,64.7,49.1,30.09,West,259,2.0,3.0,57,0.00,,,0.00,VWS V14.01,2013-09-06 15:11:00,
2013-09-06 11:21:00,65.0,49.9,30.09,NE,56,0.0,4.0,58,0.00,,,0.00,VWS V14.01,2013-09-06 15:21:00,
2013-09-06 11:31:00,64.9,49.8,30.10,ESE,109,2.0,4.0,58,0.00,,,0.00,VWS V14.01,2013-09-06 15:31:00,
2013-09-06 11:41:00,64.7,48.2,30.10,SW,234,0.0,5.0,55,0.00,,,0.00,VWS V14.01,2013-09-06 15:41:00,
2013-09-06 11:51:00,65.0,48.9,30.10,NE,40,2.0,3.0,56,0.00,,,0.00,VWS V14.01,2013-09-06 15:51:00,
2013-09-06 12:01:00,65.3,48.7,30.09,NW,319,2.0,3.0,55,0.00,,,0.00,VWS V14.01,2013-09-06 16:01:00,
2013-09-06 12:11:00,65.4,48.8,30.09,North,355,0.0,3.0,55,0.00,,,0.00,VWS V14.01,2013-09-06 16:11:00,
2013-09-06 12:21:00,65.3,48.2,30.09,SSW,199,1.0,4.0,54,0.00,,,0.00,VWS V14.01,2013-09-06 16:21:00,
2013-09-06 12:31:00,65.8,48.7,30.09,NNE,26,1.0,4.0,54,0.00,,,0.00,VWS V14.01,2013-09-06 16:31:00,
2013-09-06 12:41:00,65.9,47.8,30.09,SSW,198,0.0,9.0,52,0.00,,,0.00,VWS V14.01,2013-09-06 16:41:00,
2013-09-06 12:51:00,65.9,48.8,30.08,WNW,298,2.0,5.0,54,0.00,,,0.00,VWS V14.01,2013-09-06 16:51:00,
2013-09-06 13:01:00,66.2,48.1,30.08,South,187,1.0,4.0,52,0.00,,,0.00,VWS V14.01,2013-09-06 17:01:00,
2013-09-06 13:11:00,66.6,49.5,30.08,NNE,24,1.0,3.0,54,0.00,,,0.00,VWS V14.01,2013-09-06 17:11:00,
2013-09-06 13:21:00,67.0,50.3,30.08,SW,219,4.0,4.0,55,0.00,,,0.00,VWS V14.01,2013-09-06 17:21:00,
2013-09-06 13:31:00,66.8,49.1,30.08,SSW,203,1.0,6.0,53,0.00,,,0.00,VWS V14.01,2013-09-06 17:31:00,
2013-09-06 13:41:00,67.1,47.3,30.08,SSW,207,1.0,5.0,49,0.00,,,0.00,VWS V14.01,2013-09-06 17:41:00,
2013-09-06 13:51:00,67.4,51.2,30.08,NE,45,0.0,4.0,56,0.00,,,0.00,VWS V14.01,2013-09-06 17:51:00,
2013-09-06 14:01:00,67.9,49.7,30.07,SSE,161,2.0,5.0,52,0.00,,,0.00,VWS V14.01,2013-09-06 18:01:00,
2013-09-06 14:11:00,68.1,50.8,30.07,NW,323,1.0,6.0,54,0.00,,,0.00,VWS V14.01,2013-09-06 18:11:00,
2013-09-06 14:21:00,68.3,49.5,30.07,SSE,161,1.0,5.0,51,0.00,,,0.00,VWS V14.01,2013-09-06 18:21:00,
2013-09-06 14:31:00,68.3,51.0,30.06,East,85,0.0,3.0,54,0.00,,,0.00,VWS V14.01,2013-09-06 18:31:00,
2013-09-06 14:41:00,68.2,50.9,30.06,NNE,32,1.0,4.0,54,0.00,,,0.00,VWS V14.01,2013-09-06 18:41:00,
2013-09-06 14:51:00,68.1,50.3,30.06,NNE,32,0.0,2.0,53,0.00,,,0.00,VWS V14.01,2013-09-06 18:51:00,
2013-09-06 15:01:00,68.1,51.3,30.06,NNE,32,0.0,2.0,55,0.00,,,0.00,VWS V14.01,2013-09-06 19:01:00,
2013-09-06 15:11:00,67.7,48.4,30.06,SW,227,0.0,5.0,50,0.00,,,0.00,VWS V14.01,2013-09-06 19:11:00,
2013-09-06 15:21:00,67.2,52.9,30.05,SW,227,0.0,2.0,60,0.00,,,0.00,VWS V14.01,2013-09-06 19:21:00,
2013-09-06 15:31:00,66.9,52.6,30.04,SW,228,0.0,0.0,60,0.00,,,0.00,VWS V14.01,2013-09-06 19:31:00,
2013-09-06 15:41:00,66.8,50.6,30.04,SW,231,0.0,2.0,56,0.00,,,0.00,VWS V14.01,2013-09-06 19:41:00,
2013-09-06 15:51:00,66.7,52.4,30.04,SW,231,0.0,1.0,60,0.00,,,0.00,VWS V14.01,2013-09-06 19:51:00,
2013-09-06 16:01:00,66.9,52.1,30.03,SW,231,0.0,1.0,59,0.00,,,0.00,VWS V14.01,2013-09-06 20:01:00,
2013-09-06 16:11:00,67.0,51.3,30.03,SW,231,0.0,2.0,57,0.00,,,0.00,VWS V14.01,2013-09-06 20:11:00,
2013-09-06 16:21:00,67.8,51.1,30.02,SW,232,1.0,3.0,55,0.00,,,0.00,VWS V14.01,2013-09-06 20:21:00,
2013-09-06 16:31:00,68.2,51.4,30.02,SW,231,0.0,3.0,55,0.00,,,0.00,VWS V14.01,2013-09-06 20:31:00,
2013-09-06 16:41:00,68.7,50.4,30.02,ESE,121,1.0,2.0,52,0.00,,,0.00,VWS V14.01,2013-09-06 20:41:00,
2013-09-06 16:51:00,70.0,51.1,30.01,SSW,207,0.0,2.0,51,0.00,,,0.00,VWS V14.01,2013-09-06 20:51:00,
2013-09-06 17:01:00,69.7,49.2,30.02,SW,218,2.0,3.0,48,0.00,,,0.00,VWS V14.01,2013-09-06 21:01:00,
2013-09-06 17:11:00,69.8,51.9,30.02,SW,227,1.0,3.0,53,0.00,,,0.00,VWS V14.01,2013-09-06 21:11:00,
2013-09-06 17:21:00,71.4,54.4,30.02,SW,236,0.0,2.0,55,0.00,,,0.00,VWS V14.01,2013-09-06 21:21:00,
2013-09-06 17:31:00,72.1,54.0,30.02,SW,236,1.0,2.0,53,0.00,,,0.00,VWS V14.01,2013-09-06 21:31:00,
2013-09-06 17:41:00,72.2,54.1,30.02,SW,236,0.0,2.0,53,0.00,,,0.00,VWS V14.01,2013-09-06 21:41:00,
2013-09-06 17:51:00,71.7,53.7,30.02,SW,236,0.0,1.0,53,0.00,,,0.00,VWS V14.01,2013-09-06 21:51:00,
2013-09-06 18:01:00,69.6,53.2,30.02,SW,236,1.0,2.0,56,0.00,,,0.00,VWS V14.01,2013-09-06 22:01:00,
2013-09-06 18:11:00,67.6,53.2,30.02,SW,236,0.0,2.0,60,0.00,,,0.00,VWS V14.01,2013-09-06 22:11:00,
2013-09-06 18:21:00,66.6,53.6,30.02,SW,236,0.0,1.0,63,0.00,,,0.00,VWS V14.01,2013-09-06 22:21:00,
2013-09-06 18:31:00,65.9,53.4,30.02,SW,236,0.0,0.0,64,0.00,,,0.00,VWS V14.01,2013-09-06 22:31:00,
2013-09-06 18:41:00,65.4,54.6,30.02,SW,236,0.0,0.0,68,0.00,,,0.00,VWS V14.01,2013-09-06 22:41:00,
2013-09-06 18:51:00,64.7,54.3,30.01,SW,236,0.0,0.0,69,0.00,,,0.00,VWS V14.01,2013-09-06 22:51:00,
2013-09-06 19:01:00,63.9,53.9,30.01,SW,236,0.0,0.0,70,0.00,,,0.00,VWS V14.01,2013-09-06 23:01:00,
2013-09-06 19:11:00,63.2,53.3,30.01,SW,236,0.0,0.0,70,0.00,,,0.00,VWS V14.01,2013-09-06 23:11:00,
2013-09-06 19:21:00,62.3,53.5,30.01,SW,236,0.0,0.0,73,0.00,,,0.00,VWS V14.01,2013-09-06 23:21:00,
2013-09-06 19:31:00,61.0,52.7,30.01,SW,236,0.0,0.0,74,0.00,,,0.00,VWS V14.01,2013-09-06 23:31:00,
2013-09-06 19:41:00,60.1,52.2,30.01,SW,236,0.0,0.0,75,0.00,,,0.00,VWS V14.01,2013-09-06 23:41:00,
2013-09-06 19:51:00,59.6,52.0,30.01,SW,236,0.0,0.0,76,0.00,,,0.00,VWS V14.01,2013-09-06 23:51:00,
2013-09-06 20:01:00,59.3,51.8,30.02,SW,236,0.0,0.0,76,0.00,,,0.00,VWS V14.01,2013-09-07 00:01:00,
2013-09-06 20:11:00,58.8,51.3,30.02,SW,236,0.0,0.0,76,0.00,,,0.00,VWS V14.01,2013-09-07 00:11:00,
2013-09-06 20:21:00,58.5,51.0,30.02,SW,236,0.0,0.0,76,0.00,,,0.00,VWS V14.01,2013-09-07 00:21:00,
2013-09-06 20:31:00,58.2,51.0,30.02,SW,236,0.0,0.0,77,0.00,,,0.00,VWS V14.01,2013-09-07 00:31:00,
2013-09-06 20:41:00,57.9,50.7,30.02,SW,236,0.0,0.0,77,0.00,,,0.00,VWS V14.01,2013-09-07 00:41:00,
2013-09-06 20:51:00,57.6,50.8,30.02,SW,236,0.0,0.0,78,0.00,,,0.00,VWS V14.01,2013-09-07 00:51:00,
2013-09-06 21:01:00,57.3,50.8,30.01,SW,236,0.0,0.0,79,0.00,,,0.00,VWS V14.01,2013-09-07 01:01:00,
2013-09-06 21:11:00,57.1,50.7,30.01,SW,236,0.0,0.0,79,0.00,,,0.00,VWS V14.01,2013-09-07 01:11:00,
2013-09-06 21:21:00,56.7,50.6,30.02,SW,236,0.0,0.0,80,0.00,,,0.00,VWS V14.01,2013-09-07 01:21:00,
2013-09-06 21:31:00,56.5,50.4,30.01,SW,236,0.0,0.0,80,0.00,,,0.00,VWS V14.01,2013-09-07 01:31:00,
2013-09-06 21:41:00,56.4,50.7,30.01,SW,236,0.0,0.0,81,0.00,,,0.00,VWS V14.01,2013-09-07 01:41:00,
2013-09-06 21:51:00,56.2,50.5,30.01,SW,236,0.0,0.0,81,0.00,,,0.00,VWS V14.01,2013-09-07 01:51:00,
2013-09-06 22:01:00,56.0,50.3,30.01,SW,236,0.0,0.0,81,0.00,,,0.00,VWS V14.01,2013-09-07 02:01:00,
2013-09-06 22:11:00,55.8,50.7,30.01,SW,236,0.0,0.0,83,0.00,,,0.00,VWS V14.01,2013-09-07 02:11:00,
2013-09-06 22:21:00,55.5,50.8,30.01,SW,236,0.0,0.0,84,0.00,,,0.00,VWS V14.01,2013-09-07 02:21:00,
2013-09-06 22:31:00,55.5,50.4,30.01,SW,236,0.0,0.0,83,0.00,,,0.00,VWS V14.01,2013-09-07 02:31:00,
2013-09-06 22:41:00,55.3,50.2,30.01,SW,236,0.0,0.0,83,0.00,,,0.00,VWS V14.01,2013-09-07 02:41:00,
2013-09-06 22:51:00,55.2,50.1,30.01,SW,236,0.0,0.0,83,0.00,,,0.00,VWS V14.01,2013-09-07 02:51:00,
2013-09-06 23:01:00,54.9,49.8,30.00,SW,236,0.0,0.0,83,0.00,,,0.00,VWS V14.01,2013-09-07 03:01:00,
2013-09-06 23:11:00,54.6,49.9,30.00,SW,236,0.0,1.0,84,0.00,,,0.00,VWS V14.01,2013-09-07 03:11:00,
2013-09-06 23:21:00,54.3,49.6,30.00,SW,236,0.0,1.0,84,0.00,,,0.00,VWS V14.01,2013-09-07 03:21:00,
2013-09-06 23:31:00,54.1,49.7,29.99,SW,236,0.0,0.0,85,0.00,,,0.00,VWS V14.01,2013-09-07 03:31:00,
2013-09-06 23:41:00,54.0,49.6,29.99,SW,236,0.0,1.0,85,0.00,,,0.00,VWS V14.01,2013-09-07 03:41:00,
2013-09-06 23:51:00,54.0,49.6,29.99,SW,236,0.0,1.0,85,0.00,,,0.00,VWS V14.01,2013-09-07 03:51:00,